sensor_id;sensor_type;location;lat;lon;timestamp;temperature;humidity
12434;DHT22;6281;49.038;8.372;2023-01-10T00:01:19;6.10;99.90
12434;DHT22;6281;49.038;8.372;2023-01-10T00:03:46;6.00;99.90
12434;DHT22;6281;49.038;8.372;2023-01-10T00:06:13;6.00;99.90
12434;DHT22;6281;49.038;8.372;2023-01-10T00:08:40;6.10;99.90
12434;DHT22;6281;49.038;8.372;2023-01-10T00:11:11;6.00;99.90
12434;DHT22;6281;49.038;8.372;2023-01-10T00:13:52;6.00;99.90
12434;DHT22;6281;49.038;8.372;2023-01-10T00:16:19;6.10;99.90
12434;DHT22;6281;49.038;8.372;2023-01-10T00:18:46;6.10;99.90
12434;DHT22;6281;49.038;8.372;2023-01-10T00:21:13;6.10;99.90
12434;DHT22;6281;49.038;8.372;2023-01-10T00:23:40;6.10;99.90
12434;DHT22;6281;49.038;8.372;2023-01-10T00:26:09;6.10;99.90
12434;DHT22;6281;49.038;8.372;2023-01-10T00:28:37;6.00;99.90
12434;DHT22;6281;49.038;8.372;2023-01-10T00:31:04;6.00;99.90
12434;DHT22;6281;49.038;8.372;2023-01-10T00:33:31;6.10;99.90
12434;DHT22;6281;49.038;8.372;2023-01-10T00:35:58;6.10;99.90
12434;DHT22;6281;49.038;8.372;2023-01-10T00:38:26;6.10;99.90
12434;DHT22;6281;49.038;8.372;2023-01-10T00:40:52;6.00;99.90
12434;DHT22;6281;49.038;8.372;2023-01-10T00:43:21;6.00;99.90
12434;DHT22;6281;49.038;8.372;2023-01-10T00:46:06;6.00;99.90
12434;DHT22;6281;49.038;8.372;2023-01-10T00:48:33;6.00;99.90
12434;DHT22;6281;49.038;8.372;2023-01-10T00:51:00;6.00;99.90
12434;DHT22;6281;49.038;8.372;2023-01-10T00:53:27;6.00;99.90
12434;DHT22;6281;49.038;8.372;2023-01-10T00:55:54;6.00;99.90
12434;DHT22;6281;49.038;8.372;2023-01-10T00:58:23;6.00;99.90
12434;DHT22;6281;49.038;8.372;2023-01-10T01:00:50;6.00;99.90
12434;DHT22;6281;49.038;8.372;2023-01-10T01:03:19;6.00;99.90
12434;DHT22;6281;49.038;8.372;2023-01-10T01:05:47;6.00;99.90
12434;DHT22;6281;49.038;8.372;2023-01-10T01:08:15;6.00;99.90
12434;DHT22;6281;49.038;8.372;2023-01-10T01:10:43;6.00;99.90
12434;DHT22;6281;49.038;8.372;2023-01-10T01:13:13;6.00;99.90
12434;DHT22;6281;49.038;8.372;2023-01-10T01:15:41;6.00;99.90
12434;DHT22;6281;49.038;8.372;2023-01-10T01:18:10;6.10;99.90
12434;DHT22;6281;49.038;8.372;2023-01-10T01:20:38;6.10;99.90
12434;DHT22;6281;49.038;8.372;2023-01-10T01:23:05;6.10;99.90
12434;DHT22;6281;49.038;8.372;2023-01-10T01:25:32;6.00;99.90
12434;DHT22;6281;49.038;8.372;2023-01-10T01:27:59;6.00;99.90
12434;DHT22;6281;49.038;8.372;2023-01-10T01:30:26;6.00;99.90
12434;DHT22;6281;49.038;8.372;2023-01-10T01:32:55;6.00;99.90
12434;DHT22;6281;49.038;8.372;2023-01-10T01:35:22;6.10;99.90
12434;DHT22;6281;49.038;8.372;2023-01-10T01:37:50;6.10;99.90
12434;DHT22;6281;49.038;8.372;2023-01-10T01:40:17;6.10;99.90
12434;DHT22;6281;49.038;8.372;2023-01-10T01:42:45;6.10;99.90
12434;DHT22;6281;49.038;8.372;2023-01-10T01:45:34;6.10;99.90
12434;DHT22;6281;49.038;8.372;2023-01-10T01:48:14;6.00;99.90
12434;DHT22;6281;49.038;8.372;2023-01-10T01:50:45;6.00;99.90
12434;DHT22;6281;49.038;8.372;2023-01-10T01:53:15;6.00;99.90
12434;DHT22;6281;49.038;8.372;2023-01-10T01:55:44;5.90;99.90
12434;DHT22;6281;49.038;8.372;2023-01-10T01:58:16;6.00;99.90
12434;DHT22;6281;49.038;8.372;2023-01-10T02:00:46;6.00;99.90
12434;DHT22;6281;49.038;8.372;2023-01-10T02:03:15;6.00;99.90
12434;DHT22;6281;49.038;8.372;2023-01-10T02:05:44;5.90;99.90
12434;DHT22;6281;49.038;8.372;2023-01-10T02:08:11;5.90;99.90
12434;DHT22;6281;49.038;8.372;2023-01-10T02:10:42;5.90;99.90
12434;DHT22;6281;49.038;8.372;2023-01-10T02:13:14;6.00;99.90
12434;DHT22;6281;49.038;8.372;2023-01-10T02:15:41;5.90;99.90
12434;DHT22;6281;49.038;8.372;2023-01-10T02:18:08;5.90;99.90
12434;DHT22;6281;49.038;8.372;2023-01-10T02:20:46;5.90;99.90
12434;DHT22;6281;49.038;8.372;2023-01-10T02:23:33;5.90;99.90
12434;DHT22;6281;49.038;8.372;2023-01-10T02:26:29;5.90;99.90
12434;DHT22;6281;49.038;8.372;2023-01-10T02:32:37;6.00;99.90
12434;DHT22;6281;49.038;8.372;2023-01-10T02:35:26;6.00;99.90
12434;DHT22;6281;49.038;8.372;2023-01-10T02:38:00;6.00;99.90
12434;DHT22;6281;49.038;8.372;2023-01-10T02:40:36;6.00;99.90
12434;DHT22;6281;49.038;8.372;2023-01-10T02:43:08;5.90;99.90
12434;DHT22;6281;49.038;8.372;2023-01-10T02:45:40;5.90;99.90
12434;DHT22;6281;49.038;8.372;2023-01-10T02:48:10;5.90;99.90
12434;DHT22;6281;49.038;8.372;2023-01-10T02:50:48;5.90;99.90
12434;DHT22;6281;49.038;8.372;2023-01-10T02:53:20;5.80;99.90
12434;DHT22;6281;49.038;8.372;2023-01-10T03:02:09;5.70;99.90
12434;DHT22;6281;49.038;8.372;2023-01-10T03:04:50;5.70;99.90
12434;DHT22;6281;49.038;8.372;2023-01-10T03:07:25;5.60;99.90
12434;DHT22;6281;49.038;8.372;2023-01-10T03:09:56;5.60;99.90
12434;DHT22;6281;49.038;8.372;2023-01-10T03:12:30;5.70;99.90
12434;DHT22;6281;49.038;8.372;2023-01-10T03:14:58;5.70;99.90
12434;DHT22;6281;49.038;8.372;2023-01-10T03:17:27;5.60;99.90
12434;DHT22;6281;49.038;8.372;2023-01-10T03:20:01;5.50;99.90
12434;DHT22;6281;49.038;8.372;2023-01-10T03:22:35;5.60;99.90
12434;DHT22;6281;49.038;8.372;2023-01-10T03:25:05;5.50;99.90
12434;DHT22;6281;49.038;8.372;2023-01-10T03:27:37;5.50;99.90
12434;DHT22;6281;49.038;8.372;2023-01-10T03:30:12;5.50;99.90
12434;DHT22;6281;49.038;8.372;2023-01-10T03:32:42;5.50;99.90
12434;DHT22;6281;49.038;8.372;2023-01-10T03:35:12;5.60;99.90
12434;DHT22;6281;49.038;8.372;2023-01-10T03:37:45;5.60;99.90
12434;DHT22;6281;49.038;8.372;2023-01-10T03:40:18;5.60;99.90
12434;DHT22;6281;49.038;8.372;2023-01-10T03:42:54;5.50;99.90
12434;DHT22;6281;49.038;8.372;2023-01-10T03:45:45;5.60;99.90
12434;DHT22;6281;49.038;8.372;2023-01-10T03:48:14;5.50;99.90
12434;DHT22;6281;49.038;8.372;2023-01-10T03:50:44;5.60;99.90
12434;DHT22;6281;49.038;8.372;2023-01-10T03:53:12;5.60;99.90
12434;DHT22;6281;49.038;8.372;2023-01-10T03:55:41;5.60;99.90
12434;DHT22;6281;49.038;8.372;2023-01-10T03:58:08;5.60;99.90
12434;DHT22;6281;49.038;8.372;2023-01-10T04:00:35;5.70;99.90
12434;DHT22;6281;49.038;8.372;2023-01-10T04:03:02;5.60;99.90
12434;DHT22;6281;49.038;8.372;2023-01-10T04:05:29;5.70;99.90
12434;DHT22;6281;49.038;8.372;2023-01-10T04:07:58;5.70;99.90
12434;DHT22;6281;49.038;8.372;2023-01-10T04:10:25;5.70;99.90
12434;DHT22;6281;49.038;8.372;2023-01-10T04:12:53;5.70;99.90
12434;DHT22;6281;49.038;8.372;2023-01-10T04:15:20;5.70;99.90
12434;DHT22;6281;49.038;8.372;2023-01-10T04:17:48;5.80;99.90
12434;DHT22;6281;49.038;8.372;2023-01-10T04:20:15;5.80;99.90
12434;DHT22;6281;49.038;8.372;2023-01-10T04:22:44;5.80;99.90
12434;DHT22;6281;49.038;8.372;2023-01-10T04:25:12;5.80;99.90
12434;DHT22;6281;49.038;8.372;2023-01-10T04:27:39;5.80;99.90
12434;DHT22;6281;49.038;8.372;2023-01-10T04:30:07;5.80;99.90
12434;DHT22;6281;49.038;8.372;2023-01-10T04:32:34;5.80;99.90
12434;DHT22;6281;49.038;8.372;2023-01-10T04:35:01;5.80;99.90
12434;DHT22;6281;49.038;8.372;2023-01-10T04:37:28;5.80;99.90
12434;DHT22;6281;49.038;8.372;2023-01-10T04:39:55;5.80;99.90
12434;DHT22;6281;49.038;8.372;2023-01-10T04:42:23;5.80;99.90
12434;DHT22;6281;49.038;8.372;2023-01-10T04:44:50;5.80;99.90
12434;DHT22;6281;49.038;8.372;2023-01-10T04:47:16;5.80;99.90
12434;DHT22;6281;49.038;8.372;2023-01-10T04:49:43;5.70;99.90
12434;DHT22;6281;49.038;8.372;2023-01-10T04:52:10;5.80;99.90
12434;DHT22;6281;49.038;8.372;2023-01-10T04:54:37;5.70;99.90
12434;DHT22;6281;49.038;8.372;2023-01-10T04:57:04;5.80;99.90
12434;DHT22;6281;49.038;8.372;2023-01-10T04:59:32;5.80;99.90
12434;DHT22;6281;49.038;8.372;2023-01-10T05:01:59;5.80;99.90
12434;DHT22;6281;49.038;8.372;2023-01-10T05:04:26;5.70;99.90
12434;DHT22;6281;49.038;8.372;2023-01-10T05:06:53;5.80;99.90
12434;DHT22;6281;49.038;8.372;2023-01-10T05:09:20;5.80;99.90
12434;DHT22;6281;49.038;8.372;2023-01-10T05:11:47;5.80;99.90
12434;DHT22;6281;49.038;8.372;2023-01-10T05:14:14;5.80;99.90
12434;DHT22;6281;49.038;8.372;2023-01-10T05:16:42;5.80;99.90
12434;DHT22;6281;49.038;8.372;2023-01-10T05:19:09;5.70;99.90
12434;DHT22;6281;49.038;8.372;2023-01-10T05:21:36;5.80;99.90
12434;DHT22;6281;49.038;8.372;2023-01-10T05:24:04;5.80;99.90
12434;DHT22;6281;49.038;8.372;2023-01-10T05:26:31;5.80;99.90
12434;DHT22;6281;49.038;8.372;2023-01-10T05:28:58;5.70;99.90
12434;DHT22;6281;49.038;8.372;2023-01-10T05:31:25;5.70;99.90
12434;DHT22;6281;49.038;8.372;2023-01-10T05:33:53;5.70;99.90
12434;DHT22;6281;49.038;8.372;2023-01-10T05:36:20;5.70;99.90
12434;DHT22;6281;49.038;8.372;2023-01-10T05:38:47;5.70;99.90
12434;DHT22;6281;49.038;8.372;2023-01-10T05:41:14;5.70;99.90
12434;DHT22;6281;49.038;8.372;2023-01-10T05:43:40;5.70;99.90
12434;DHT22;6281;49.038;8.372;2023-01-10T05:46:08;5.70;99.90
12434;DHT22;6281;49.038;8.372;2023-01-10T05:48:35;5.70;99.90
12434;DHT22;6281;49.038;8.372;2023-01-10T05:51:03;5.70;99.90
12434;DHT22;6281;49.038;8.372;2023-01-10T05:53:30;5.80;99.90
12434;DHT22;6281;49.038;8.372;2023-01-10T05:55:59;5.80;99.90
12434;DHT22;6281;49.038;8.372;2023-01-10T05:58:27;5.70;99.90
12434;DHT22;6281;49.038;8.372;2023-01-10T06:00:54;5.70;99.90
12434;DHT22;6281;49.038;8.372;2023-01-10T06:03:22;5.80;99.90
12434;DHT22;6281;49.038;8.372;2023-01-10T06:05:49;5.70;99.90
12434;DHT22;6281;49.038;8.372;2023-01-10T06:08:17;5.80;99.90
12434;DHT22;6281;49.038;8.372;2023-01-10T06:10:44;5.80;99.90
12434;DHT22;6281;49.038;8.372;2023-01-10T06:13:11;5.70;99.90
12434;DHT22;6281;49.038;8.372;2023-01-10T06:15:38;5.90;99.90
12434;DHT22;6281;49.038;8.372;2023-01-10T06:18:05;5.80;99.90
12434;DHT22;6281;49.038;8.372;2023-01-10T06:20:33;5.80;99.90
12434;DHT22;6281;49.038;8.372;2023-01-10T06:23:00;5.80;99.90
12434;DHT22;6281;49.038;8.372;2023-01-10T06:25:31;5.80;99.90
12434;DHT22;6281;49.038;8.372;2023-01-10T06:27:58;5.70;99.90
12434;DHT22;6281;49.038;8.372;2023-01-10T06:30:26;5.80;99.90
12434;DHT22;6281;49.038;8.372;2023-01-10T06:32:53;5.80;99.90
12434;DHT22;6281;49.038;8.372;2023-01-10T06:35:25;5.80;99.90
12434;DHT22;6281;49.038;8.372;2023-01-10T06:37:52;5.80;99.90
12434;DHT22;6281;49.038;8.372;2023-01-10T06:40:19;5.80;99.90
12434;DHT22;6281;49.038;8.372;2023-01-10T06:42:48;5.80;99.90
12434;DHT22;6281;49.038;8.372;2023-01-10T06:45:15;5.80;99.90
12434;DHT22;6281;49.038;8.372;2023-01-10T06:47:42;5.80;99.90
12434;DHT22;6281;49.038;8.372;2023-01-10T06:50:12;5.80;99.90
12434;DHT22;6281;49.038;8.372;2023-01-10T06:52:39;5.80;99.90
12434;DHT22;6281;49.038;8.372;2023-01-10T06:55:07;5.80;99.90
12434;DHT22;6281;49.038;8.372;2023-01-10T06:57:34;5.80;99.90
12434;DHT22;6281;49.038;8.372;2023-01-10T07:00:06;5.70;99.90
12434;DHT22;6281;49.038;8.372;2023-01-10T07:02:33;5.70;99.90
12434;DHT22;6281;49.038;8.372;2023-01-10T07:05:00;5.60;99.90
12434;DHT22;6281;49.038;8.372;2023-01-10T07:07:27;5.50;99.90
12434;DHT22;6281;49.038;8.372;2023-01-10T07:09:55;5.60;99.90
12434;DHT22;6281;49.038;8.372;2023-01-10T07:12:24;5.60;99.90
12434;DHT22;6281;49.038;8.372;2023-01-10T07:14:50;5.50;99.90
12434;DHT22;6281;49.038;8.372;2023-01-10T07:17:19;5.50;99.90
12434;DHT22;6281;49.038;8.372;2023-01-10T07:19:46;5.50;99.90
12434;DHT22;6281;49.038;8.372;2023-01-10T07:22:13;5.60;99.90
12434;DHT22;6281;49.038;8.372;2023-01-10T07:24:39;5.60;99.90
12434;DHT22;6281;49.038;8.372;2023-01-10T07:27:06;5.60;99.90
12434;DHT22;6281;49.038;8.372;2023-01-10T07:29:33;5.60;99.90
12434;DHT22;6281;49.038;8.372;2023-01-10T07:32:00;5.60;99.90
12434;DHT22;6281;49.038;8.372;2023-01-10T07:34:28;5.60;99.90
12434;DHT22;6281;49.038;8.372;2023-01-10T07:36:55;5.60;99.90
12434;DHT22;6281;49.038;8.372;2023-01-10T07:39:22;5.50;99.90
12434;DHT22;6281;49.038;8.372;2023-01-10T07:41:49;5.60;99.90
12434;DHT22;6281;49.038;8.372;2023-01-10T07:44:17;5.50;99.90
12434;DHT22;6281;49.038;8.372;2023-01-10T07:46:44;5.50;99.90
12434;DHT22;6281;49.038;8.372;2023-01-10T07:49:11;5.50;99.90
12434;DHT22;6281;49.038;8.372;2023-01-10T07:51:40;5.50;99.90
12434;DHT22;6281;49.038;8.372;2023-01-10T07:54:07;5.50;99.90
12434;DHT22;6281;49.038;8.372;2023-01-10T07:56:33;5.50;99.90
12434;DHT22;6281;49.038;8.372;2023-01-10T07:59:00;5.70;99.90
12434;DHT22;6281;49.038;8.372;2023-01-10T08:01:27;5.60;99.90
12434;DHT22;6281;49.038;8.372;2023-01-10T08:03:55;5.70;99.90
12434;DHT22;6281;49.038;8.372;2023-01-10T08:06:22;5.70;99.90
12434;DHT22;6281;49.038;8.372;2023-01-10T08:08:51;5.80;99.90
12434;DHT22;6281;49.038;8.372;2023-01-10T08:11:18;5.70;99.90
12434;DHT22;6281;49.038;8.372;2023-01-10T08:13:45;5.80;99.90
12434;DHT22;6281;49.038;8.372;2023-01-10T08:16:12;5.80;99.90
12434;DHT22;6281;49.038;8.372;2023-01-10T08:18:39;5.80;99.90
12434;DHT22;6281;49.038;8.372;2023-01-10T08:21:08;5.80;99.90
12434;DHT22;6281;49.038;8.372;2023-01-10T08:23:35;5.80;99.90
12434;DHT22;6281;49.038;8.372;2023-01-10T08:26:03;5.80;99.90
12434;DHT22;6281;49.038;8.372;2023-01-10T08:28:31;5.80;99.90
12434;DHT22;6281;49.038;8.372;2023-01-10T08:31:04;5.90;99.90
12434;DHT22;6281;49.038;8.372;2023-01-10T08:33:30;5.80;99.90
12434;DHT22;6281;49.038;8.372;2023-01-10T08:35:57;5.80;99.90
12434;DHT22;6281;49.038;8.372;2023-01-10T08:38:24;5.80;99.90
12434;DHT22;6281;49.038;8.372;2023-01-10T08:40:51;5.80;99.90
12434;DHT22;6281;49.038;8.372;2023-01-10T08:43:19;5.90;99.90
12434;DHT22;6281;49.038;8.372;2023-01-10T08:45:47;5.90;99.90
12434;DHT22;6281;49.038;8.372;2023-01-10T08:48:14;5.90;99.90
12434;DHT22;6281;49.038;8.372;2023-01-10T08:50:41;5.90;99.90
12434;DHT22;6281;49.038;8.372;2023-01-10T08:53:08;5.90;99.90
12434;DHT22;6281;49.038;8.372;2023-01-10T08:55:36;5.90;99.90
12434;DHT22;6281;49.038;8.372;2023-01-10T08:58:03;6.00;99.90
12434;DHT22;6281;49.038;8.372;2023-01-10T09:00:32;6.00;99.90
12434;DHT22;6281;49.038;8.372;2023-01-10T09:02:58;6.00;99.90
12434;DHT22;6281;49.038;8.372;2023-01-10T09:05:25;6.00;99.90
12434;DHT22;6281;49.038;8.372;2023-01-10T09:07:52;6.10;99.90
12434;DHT22;6281;49.038;8.372;2023-01-10T09:10:23;6.10;99.90
12434;DHT22;6281;49.038;8.372;2023-01-10T09:12:50;6.10;99.90
12434;DHT22;6281;49.038;8.372;2023-01-10T09:15:21;6.10;99.90
12434;DHT22;6281;49.038;8.372;2023-01-10T09:17:52;6.20;99.90
12434;DHT22;6281;49.038;8.372;2023-01-10T09:20:19;6.10;99.90
12434;DHT22;6281;49.038;8.372;2023-01-10T09:22:46;6.30;99.90
12434;DHT22;6281;49.038;8.372;2023-01-10T09:25:12;6.30;99.90
12434;DHT22;6281;49.038;8.372;2023-01-10T09:27:39;6.30;99.90
12434;DHT22;6281;49.038;8.372;2023-01-10T09:30:07;6.30;99.90
12434;DHT22;6281;49.038;8.372;2023-01-10T09:32:34;6.40;99.90
12434;DHT22;6281;49.038;8.372;2023-01-10T09:35:03;6.30;99.90
12434;DHT22;6281;49.038;8.372;2023-01-10T09:37:30;6.40;99.90
12434;DHT22;6281;49.038;8.372;2023-01-10T09:39:59;6.40;99.90
12434;DHT22;6281;49.038;8.372;2023-01-10T09:42:40;6.40;99.90
12434;DHT22;6281;49.038;8.372;2023-01-10T09:45:14;6.40;99.90
12434;DHT22;6281;49.038;8.372;2023-01-10T09:47:49;6.40;99.90
12434;DHT22;6281;49.038;8.372;2023-01-10T09:50:23;6.50;99.90
12434;DHT22;6281;49.038;8.372;2023-01-10T09:52:56;6.40;99.90
12434;DHT22;6281;49.038;8.372;2023-01-10T09:55:27;6.30;99.90
12434;DHT22;6281;49.038;8.372;2023-01-10T09:57:57;6.20;99.90
12434;DHT22;6281;49.038;8.372;2023-01-10T10:00:34;6.30;99.90
12434;DHT22;6281;49.038;8.372;2023-01-10T10:03:05;6.20;99.90
12434;DHT22;6281;49.038;8.372;2023-01-10T10:05:40;6.30;99.90
12434;DHT22;6281;49.038;8.372;2023-01-10T10:08:14;6.20;99.90
12434;DHT22;6281;49.038;8.372;2023-01-10T10:10:59;6.50;99.90
12434;DHT22;6281;49.038;8.372;2023-01-10T10:13:36;6.40;99.90
12434;DHT22;6281;49.038;8.372;2023-01-10T10:16:13;6.60;99.90
12434;DHT22;6281;49.038;8.372;2023-01-10T10:18:49;6.60;99.90
12434;DHT22;6281;49.038;8.372;2023-01-10T10:21:25;6.70;99.90
12434;DHT22;6281;49.038;8.372;2023-01-10T10:24:21;6.70;99.90
12434;DHT22;6281;49.038;8.372;2023-01-10T10:26:56;6.80;99.90
12434;DHT22;6281;49.038;8.372;2023-01-10T10:29:39;6.70;99.90
12434;DHT22;6281;49.038;8.372;2023-01-10T10:32:22;6.60;99.90
12434;DHT22;6281;49.038;8.372;2023-01-10T10:34:55;6.50;99.90
12434;DHT22;6281;49.038;8.372;2023-01-10T10:37:28;6.60;99.90
12434;DHT22;6281;49.038;8.372;2023-01-10T10:40:00;6.70;99.90
12434;DHT22;6281;49.038;8.372;2023-01-10T10:42:29;6.70;99.90
12434;DHT22;6281;49.038;8.372;2023-01-10T10:44:59;6.70;99.90
12434;DHT22;6281;49.038;8.372;2023-01-10T10:47:32;6.80;99.90
12434;DHT22;6281;49.038;8.372;2023-01-10T10:50:10;6.90;99.90
12434;DHT22;6281;49.038;8.372;2023-01-10T10:52:43;6.80;99.90
12434;DHT22;6281;49.038;8.372;2023-01-10T10:55:13;6.80;99.90
12434;DHT22;6281;49.038;8.372;2023-01-10T10:57:41;6.80;99.90
12434;DHT22;6281;49.038;8.372;2023-01-10T11:00:14;6.80;99.90
12434;DHT22;6281;49.038;8.372;2023-01-10T11:02:44;6.70;99.90
12434;DHT22;6281;49.038;8.372;2023-01-10T11:05:16;6.70;99.90
12434;DHT22;6281;49.038;8.372;2023-01-10T11:07:48;6.80;99.90
12434;DHT22;6281;49.038;8.372;2023-01-10T11:10:20;6.80;99.90
12434;DHT22;6281;49.038;8.372;2023-01-10T11:13:07;6.90;99.90
12434;DHT22;6281;49.038;8.372;2023-01-10T11:15:40;6.80;99.90
12434;DHT22;6281;49.038;8.372;2023-01-10T11:18:11;7.00;99.90
12434;DHT22;6281;49.038;8.372;2023-01-10T11:20:47;6.90;99.90
12434;DHT22;6281;49.038;8.372;2023-01-10T11:26:06;7.10;99.90
12434;DHT22;6281;49.038;8.372;2023-01-10T11:28:34;7.10;99.90
12434;DHT22;6281;49.038;8.372;2023-01-10T11:31:03;7.20;99.90
12434;DHT22;6281;49.038;8.372;2023-01-10T11:33:32;7.10;99.90
12434;DHT22;6281;49.038;8.372;2023-01-10T11:36:03;7.10;99.90
12434;DHT22;6281;49.038;8.372;2023-01-10T11:38:32;7.20;99.90
12434;DHT22;6281;49.038;8.372;2023-01-10T11:41:01;7.30;99.90
12434;DHT22;6281;49.038;8.372;2023-01-10T11:43:33;7.40;99.90
12434;DHT22;6281;49.038;8.372;2023-01-10T11:46:02;7.30;99.90
12434;DHT22;6281;49.038;8.372;2023-01-10T11:48:42;7.30;99.90
12434;DHT22;6281;49.038;8.372;2023-01-10T11:51:18;7.50;99.90
12434;DHT22;6281;49.038;8.372;2023-01-10T11:53:56;7.60;99.90
12434;DHT22;6281;49.038;8.372;2023-01-10T11:56:26;7.80;99.90
12434;DHT22;6281;49.038;8.372;2023-01-10T11:58:54;7.50;99.90
12434;DHT22;6281;49.038;8.372;2023-01-10T12:01:26;7.50;99.90
12434;DHT22;6281;49.038;8.372;2023-01-10T12:03:54;7.50;99.90
12434;DHT22;6281;49.038;8.372;2023-01-10T12:06:21;7.30;99.90
12434;DHT22;6281;49.038;8.372;2023-01-10T12:08:50;7.30;99.90
12434;DHT22;6281;49.038;8.372;2023-01-10T12:11:24;7.30;99.90
12434;DHT22;6281;49.038;8.372;2023-01-10T12:13:54;7.20;99.90
12434;DHT22;6281;49.038;8.372;2023-01-10T12:16:23;7.40;99.90
12434;DHT22;6281;49.038;8.372;2023-01-10T12:18:51;7.40;99.90
12434;DHT22;6281;49.038;8.372;2023-01-10T12:21:24;7.40;99.90
12434;DHT22;6281;49.038;8.372;2023-01-10T12:23:54;7.30;99.90
12434;DHT22;6281;49.038;8.372;2023-01-10T12:26:23;7.70;99.90
12434;DHT22;6281;49.038;8.372;2023-01-10T12:28:52;8.40;99.90
12434;DHT22;6281;49.038;8.372;2023-01-10T12:31:22;8.60;99.90
12434;DHT22;6281;49.038;8.372;2023-01-10T12:33:53;8.10;99.90
12434;DHT22;6281;49.038;8.372;2023-01-10T12:36:33;8.40;99.90
12434;DHT22;6281;49.038;8.372;2023-01-10T12:39:09;12.20;99.90
12434;DHT22;6281;49.038;8.372;2023-01-10T12:41:47;12.00;99.90
12434;DHT22;6281;49.038;8.372;2023-01-10T12:44:36;11.90;99.90
12434;DHT22;6281;49.038;8.372;2023-01-10T12:47:17;12.20;99.90
12434;DHT22;6281;49.038;8.372;2023-01-10T12:49:48;10.90;99.90
12434;DHT22;6281;49.038;8.372;2023-01-10T12:52:21;11.30;99.90
12434;DHT22;6281;49.038;8.372;2023-01-10T12:54:51;11.00;99.90
12434;DHT22;6281;49.038;8.372;2023-01-10T12:57:25;9.50;99.90
12434;DHT22;6281;49.038;8.372;2023-01-10T12:59:54;9.00;99.90
12434;DHT22;6281;49.038;8.372;2023-01-10T13:02:25;9.40;99.90
12434;DHT22;6281;49.038;8.372;2023-01-10T13:04:57;9.40;99.90
12434;DHT22;6281;49.038;8.372;2023-01-10T13:07:31;9.50;99.90
12434;DHT22;6281;49.038;8.372;2023-01-10T13:10:01;8.90;99.90
12434;DHT22;6281;49.038;8.372;2023-01-10T13:12:33;9.20;99.90
12434;DHT22;6281;49.038;8.372;2023-01-10T13:15:05;9.10;99.90
12434;DHT22;6281;49.038;8.372;2023-01-10T13:17:41;9.20;99.90
12434;DHT22;6281;49.038;8.372;2023-01-10T13:20:36;9.90;99.90
12434;DHT22;6281;49.038;8.372;2023-01-10T13:23:22;9.10;99.90
12434;DHT22;6281;49.038;8.372;2023-01-10T13:26:01;9.10;99.90
12434;DHT22;6281;49.038;8.372;2023-01-10T13:28:31;9.10;99.90
12434;DHT22;6281;49.038;8.372;2023-01-10T13:31:00;8.80;99.90
12434;DHT22;6281;49.038;8.372;2023-01-10T13:33:29;8.60;99.90
12434;DHT22;6281;49.038;8.372;2023-01-10T13:36:05;8.60;99.90
12434;DHT22;6281;49.038;8.372;2023-01-10T13:38:37;8.60;99.90
12434;DHT22;6281;49.038;8.372;2023-01-10T13:41:08;8.60;99.90
12434;DHT22;6281;49.038;8.372;2023-01-10T13:44:03;8.90;99.90
12434;DHT22;6281;49.038;8.372;2023-01-10T13:46:34;8.60;99.90
12434;DHT22;6281;49.038;8.372;2023-01-10T13:49:25;8.60;99.90
12434;DHT22;6281;49.038;8.372;2023-01-10T13:55:31;8.50;99.90
12434;DHT22;6281;49.038;8.372;2023-01-10T13:58:03;8.50;99.90
12434;DHT22;6281;49.038;8.372;2023-01-10T14:00:42;8.40;99.90
12434;DHT22;6281;49.038;8.372;2023-01-10T14:03:48;8.30;99.90
12434;DHT22;6281;49.038;8.372;2023-01-10T14:06:37;8.30;99.90
12434;DHT22;6281;49.038;8.372;2023-01-10T14:09:36;8.20;99.90
12434;DHT22;6281;49.038;8.372;2023-01-10T14:12:07;8.30;99.90
12434;DHT22;6281;49.038;8.372;2023-01-10T14:14:50;8.10;99.90
12434;DHT22;6281;49.038;8.372;2023-01-10T14:17:23;8.20;99.90
12434;DHT22;6281;49.038;8.372;2023-01-10T14:20:02;8.10;99.90
12434;DHT22;6281;49.038;8.372;2023-01-10T14:22:32;8.10;99.90
12434;DHT22;6281;49.038;8.372;2023-01-10T14:25:02;8.00;99.90
12434;DHT22;6281;49.038;8.372;2023-01-10T14:27:36;8.00;99.90
12434;DHT22;6281;49.038;8.372;2023-01-10T14:30:07;8.00;99.90
12434;DHT22;6281;49.038;8.372;2023-01-10T14:32:41;8.00;99.90
12434;DHT22;6281;49.038;8.372;2023-01-10T14:35:17;7.90;99.90
12434;DHT22;6281;49.038;8.372;2023-01-10T14:37:49;7.90;99.90
12434;DHT22;6281;49.038;8.372;2023-01-10T14:40:27;7.90;99.90
12434;DHT22;6281;49.038;8.372;2023-01-10T14:42:57;7.80;99.90
12434;DHT22;6281;49.038;8.372;2023-01-10T14:45:33;7.80;99.90
12434;DHT22;6281;49.038;8.372;2023-01-10T14:48:33;7.80;99.90
12434;DHT22;6281;49.038;8.372;2023-01-10T14:51:17;7.90;99.90
12434;DHT22;6281;49.038;8.372;2023-01-10T14:53:46;7.90;99.90
12434;DHT22;6281;49.038;8.372;2023-01-10T14:56:21;7.90;99.90
12434;DHT22;6281;49.038;8.372;2023-01-10T14:58:49;7.90;99.90
12434;DHT22;6281;49.038;8.372;2023-01-10T15:01:23;7.80;99.90
12434;DHT22;6281;49.038;8.372;2023-01-10T15:03:51;7.80;99.90
12434;DHT22;6281;49.038;8.372;2023-01-10T15:06:19;7.80;99.90
12434;DHT22;6281;49.038;8.372;2023-01-10T15:08:54;7.80;99.90
12434;DHT22;6281;49.038;8.372;2023-01-10T15:11:21;7.80;99.90
12434;DHT22;6281;49.038;8.372;2023-01-10T15:13:54;7.80;99.90
12434;DHT22;6281;49.038;8.372;2023-01-10T15:16:24;7.80;99.90
12434;DHT22;6281;49.038;8.372;2023-01-10T15:18:53;7.70;99.90
12434;DHT22;6281;49.038;8.372;2023-01-10T15:21:23;7.80;99.90
12434;DHT22;6281;49.038;8.372;2023-01-10T15:23:50;7.60;99.90
12434;DHT22;6281;49.038;8.372;2023-01-10T15:26:28;7.70;99.90
12434;DHT22;6281;49.038;8.372;2023-01-10T15:29:08;7.60;99.90
12434;DHT22;6281;49.038;8.372;2023-01-10T15:31:39;7.60;99.90
12434;DHT22;6281;49.038;8.372;2023-01-10T15:34:08;7.50;99.90
12434;DHT22;6281;49.038;8.372;2023-01-10T15:36:40;7.60;99.90
12434;DHT22;6281;49.038;8.372;2023-01-10T15:39:16;7.50;99.90
12434;DHT22;6281;49.038;8.372;2023-01-10T15:41:44;7.40;99.90
12434;DHT22;6281;49.038;8.372;2023-01-10T15:44:22;7.50;99.90
12434;DHT22;6281;49.038;8.372;2023-01-10T15:46:55;7.40;99.90
12434;DHT22;6281;49.038;8.372;2023-01-10T15:49:23;7.30;99.90
12434;DHT22;6281;49.038;8.372;2023-01-10T15:51:51;7.30;99.90
12434;DHT22;6281;49.038;8.372;2023-01-10T15:54:31;7.40;99.90
12434;DHT22;6281;49.038;8.372;2023-01-10T15:57:06;7.30;99.90
12434;DHT22;6281;49.038;8.372;2023-01-10T15:59:46;7.30;99.90
12434;DHT22;6281;49.038;8.372;2023-01-10T16:02:21;7.20;99.90
12434;DHT22;6281;49.038;8.372;2023-01-10T16:04:50;7.10;99.90
12434;DHT22;6281;49.038;8.372;2023-01-10T16:07:22;7.20;99.90
12434;DHT22;6281;49.038;8.372;2023-01-10T16:09:53;7.20;99.90
12434;DHT22;6281;49.038;8.372;2023-01-10T16:12:25;7.10;99.90
12434;DHT22;6281;49.038;8.372;2023-01-10T16:15:15;7.20;99.90
12434;DHT22;6281;49.038;8.372;2023-01-10T16:17:45;7.10;99.90
12434;DHT22;6281;49.038;8.372;2023-01-10T16:20:13;7.10;99.90
12434;DHT22;6281;49.038;8.372;2023-01-10T16:22:41;7.10;99.90
12434;DHT22;6281;49.038;8.372;2023-01-10T16:25:13;7.00;99.90
12434;DHT22;6281;49.038;8.372;2023-01-10T16:27:40;7.00;99.90
12434;DHT22;6281;49.038;8.372;2023-01-10T16:30:20;7.00;99.90
12434;DHT22;6281;49.038;8.372;2023-01-10T16:32:50;7.00;99.90
12434;DHT22;6281;49.038;8.372;2023-01-10T16:35:17;7.00;99.90
12434;DHT22;6281;49.038;8.372;2023-01-10T16:37:45;7.00;99.90
12434;DHT22;6281;49.038;8.372;2023-01-10T16:40:23;6.90;99.90
12434;DHT22;6281;49.038;8.372;2023-01-10T16:42:51;7.00;99.90